This is the latest recevied weather packets stored in our database for station/object N6WDO. If no packets are shown the sender has not sent any weather packets the latest 10 day(s).
| Time | Temp. | Humidity | Pressure | Rain* | Wind** | Luminosity | Snow |
|---|---|---|---|---|---|---|---|
| 1777509395 | 23.33° C | 37% | 1016.2 hPa | 0 mm | - | 99 W/m² | - |
| 1777509093 | 23.33° C | 37% | 1016.2 hPa | 0 mm | - | 162 W/m² | - |
| 1777508790 | 23.89° C | 32% | 1016.6 hPa | 0 mm | - | 44 W/m² | - |
| 1777508487 | 23.89° C | 32% | 1016.1 hPa | 0 mm | - | 80 W/m² | - |
| 1777508184 | 23.89° C | 33% | 1016.5 hPa | 0 mm | - | 226 W/m² | - |
| 1777507880 | 25° C | 33% | 1016.5 hPa | 0 mm | - | 226 W/m² | - |
| 1777507578 | 24.44° C | 31% | 1016.2 hPa | 0 mm | - | 233 W/m² | - |
| 1777507275 | 23.89° C | 35% | 1016.7 hPa | 0 mm | - | 316 W/m² | - |
| 1777506972 | 24.44° C | 31% | 1016.5 hPa | 0 mm | - | 67 W/m² | - |
| 1777506669 | 25° C | 33% | 1016.5 hPa | 0 mm | - | 337 W/m² | - |
| 1777506365 | 25° C | 31% | 1016.5 hPa | 0 mm | - | 367 W/m² | - |
| 1777506061 | 25° C | 31% | 1017 hPa | 0 mm | - | 368 W/m² | - |
| 1777505756 | 25° C | 29% | 1016.8 hPa | 0 mm | - | 393 W/m² | - |
| 1777505454 | 24.44° C | 31% | 1016.8 hPa | 0 mm | - | 410 W/m² | - |
| 1777505150 | 24.44° C | 30% | 1016.6 hPa | 0 mm | - | 405 W/m² | - |
| 1777504848 | 23.89° C | 29% | 1016.7 hPa | 0 mm | - | 439 W/m² | - |
| 1777504545 | 24.44° C | 27% | 1016.8 hPa | 0 mm | - | 448 W/m² | - |
| 1777504241 | 23.89° C | 28% | 1016.9 hPa | 0 mm | - | 466 W/m² | - |
| 1777503936 | 24.44° C | 33% | 1017 hPa | 0 mm | - | 478 W/m² | - |
| 1777503633 | 25° C | 31% | 1016.9 hPa | 0 mm | - | 490 W/m² | - |
| 1777503330 | 25° C | 31% | 1017.1 hPa | 0 mm | - | 503 W/m² | - |
| 1777503026 | 24.44° C | 29% | 1017.3 hPa | 0 mm | - | 515 W/m² | - |
| 1777502724 | 24.44° C | 31% | 1017.4 hPa | 0 mm | - | 524 W/m² | - |
| 1777502420 | 23.89° C | 34% | 1017.3 hPa | 0 mm | - | 539 W/m² | - |
| 1777502117 | 25° C | 32% | 1017.2 hPa | 0 mm | - | 551 W/m² | - |
* Rain latest hour (hover to see other rain measurements)
** Current wind speed in m/s (hover to see current wind gust speed)